sensor_id;sensor_type;location;lat;lon;timestamp;P1;durP1;ratioP1;P2;durP2;ratioP2
7487;SDS011;3785;52.260;4.728;2023-09-30T00:01:17;4.70;;;2.67;;
7487;SDS011;3785;52.260;4.728;2023-09-30T00:04:39;8.52;;;2.80;;
7487;SDS011;3785;52.260;4.728;2023-09-30T00:08:00;5.97;;;2.53;;
7487;SDS011;3785;52.260;4.728;2023-09-30T00:11:21;5.72;;;2.83;;
7487;SDS011;3785;52.260;4.728;2023-09-30T00:14:42;7.10;;;3.08;;
7487;SDS011;3785;52.260;4.728;2023-09-30T00:18:03;5.10;;;2.63;;
7487;SDS011;3785;52.260;4.728;2023-09-30T00:21:25;6.22;;;3.05;;
7487;SDS011;3785;52.260;4.728;2023-09-30T00:24:46;6.05;;;2.75;;
7487;SDS011;3785;52.260;4.728;2023-09-30T00:28:07;6.47;;;2.88;;
7487;SDS011;3785;52.260;4.728;2023-09-30T00:31:28;5.15;;;3.13;;
7487;SDS011;3785;52.260;4.728;2023-09-30T00:34:49;6.40;;;3.35;;
7487;SDS011;3785;52.260;4.728;2023-09-30T00:38:12;4.82;;;2.80;;
7487;SDS011;3785;52.260;4.728;2023-09-30T00:41:34;9.27;;;3.05;;
7487;SDS011;3785;52.260;4.728;2023-09-30T00:44:55;6.47;;;3.08;;
7487;SDS011;3785;52.260;4.728;2023-09-30T00:48:16;6.75;;;2.95;;
7487;SDS011;3785;52.260;4.728;2023-09-30T00:51:37;7.55;;;2.95;;
7487;SDS011;3785;52.260;4.728;2023-09-30T00:54:59;5.55;;;2.60;;
7487;SDS011;3785;52.260;4.728;2023-09-30T00:58:21;8.25;;;2.78;;
7487;SDS011;3785;52.260;4.728;2023-09-30T01:01:43;5.93;;;2.75;;
7487;SDS011;3785;52.260;4.728;2023-09-30T01:05:05;8.75;;;3.00;;
7487;SDS011;3785;52.260;4.728;2023-09-30T01:08:27;5.50;;;2.40;;
7487;SDS011;3785;52.260;4.728;2023-09-30T01:11:48;6.30;;;2.80;;
7487;SDS011;3785;52.260;4.728;2023-09-30T01:15:09;8.05;;;3.20;;
7487;SDS011;3785;52.260;4.728;2023-09-30T01:18:30;7.75;;;3.05;;
7487;SDS011;3785;52.260;4.728;2023-09-30T01:21:55;7.47;;;3.00;;
7487;SDS011;3785;52.260;4.728;2023-09-30T01:25:18;5.22;;;2.78;;
7487;SDS011;3785;52.260;4.728;2023-09-30T01:28:39;5.97;;;2.83;;
7487;SDS011;3785;52.260;4.728;2023-09-30T01:32:00;4.95;;;2.75;;
7487;SDS011;3785;52.260;4.728;2023-09-30T01:35:21;4.22;;;2.78;;
7487;SDS011;3785;52.260;4.728;2023-09-30T01:38:42;6.82;;;4.13;;
7487;SDS011;3785;52.260;4.728;2023-09-30T01:42:03;6.22;;;3.20;;
7487;SDS011;3785;52.260;4.728;2023-09-30T01:45:24;8.98;;;3.80;;
7487;SDS011;3785;52.260;4.728;2023-09-30T01:48:45;5.13;;;2.88;;
7487;SDS011;3785;52.260;4.728;2023-09-30T01:52:06;5.43;;;2.90;;
7487;SDS011;3785;52.260;4.728;2023-09-30T01:55:27;5.55;;;3.22;;
7487;SDS011;3785;52.260;4.728;2023-09-30T01:58:48;8.68;;;3.38;;
7487;SDS011;3785;52.260;4.728;2023-09-30T02:02:09;6.90;;;3.40;;
7487;SDS011;3785;52.260;4.728;2023-09-30T02:05:30;8.90;;;3.15;;
7487;SDS011;3785;52.260;4.728;2023-09-30T02:08:51;7.70;;;3.33;;
7487;SDS011;3785;52.260;4.728;2023-09-30T02:12:12;9.65;;;3.47;;
7487;SDS011;3785;52.260;4.728;2023-09-30T02:15:33;6.18;;;3.05;;
7487;SDS011;3785;52.260;4.728;2023-09-30T02:18:54;7.50;;;3.30;;
7487;SDS011;3785;52.260;4.728;2023-09-30T02:22:15;7.07;;;3.47;;
7487;SDS011;3785;52.260;4.728;2023-09-30T02:25:39;6.45;;;3.33;;
7487;SDS011;3785;52.260;4.728;2023-09-30T02:29:00;6.55;;;3.30;;
7487;SDS011;3785;52.260;4.728;2023-09-30T02:32:21;5.22;;;3.40;;
7487;SDS011;3785;52.260;4.728;2023-09-30T02:35:46;9.55;;;3.95;;
7487;SDS011;3785;52.260;4.728;2023-09-30T02:39:08;8.27;;;3.83;;
7487;SDS011;3785;52.260;4.728;2023-09-30T02:42:29;5.75;;;3.30;;
7487;SDS011;3785;52.260;4.728;2023-09-30T02:45:50;5.65;;;3.33;;
7487;SDS011;3785;52.260;4.728;2023-09-30T02:49:11;8.90;;;3.63;;
7487;SDS011;3785;52.260;4.728;2023-09-30T02:52:32;6.78;;;3.72;;
7487;SDS011;3785;52.260;4.728;2023-09-30T02:55:53;5.85;;;3.35;;
7487;SDS011;3785;52.260;4.728;2023-09-30T02:59:16;8.10;;;3.75;;
7487;SDS011;3785;52.260;4.728;2023-09-30T03:02:38;6.32;;;3.40;;
7487;SDS011;3785;52.260;4.728;2023-09-30T03:05:59;5.13;;;3.17;;
7487;SDS011;3785;52.260;4.728;2023-09-30T03:09:20;5.80;;;3.25;;
7487;SDS011;3785;52.260;4.728;2023-09-30T03:12:41;5.85;;;3.35;;
7487;SDS011;3785;52.260;4.728;2023-09-30T03:16:02;11.60;;;4.43;;
7487;SDS011;3785;52.260;4.728;2023-09-30T03:19:23;9.45;;;3.45;;
7487;SDS011;3785;52.260;4.728;2023-09-30T03:22:44;8.00;;;3.88;;
7487;SDS011;3785;52.260;4.728;2023-09-30T03:26:08;6.40;;;3.83;;
7487;SDS011;3785;52.260;4.728;2023-09-30T03:29:30;11.35;;;4.10;;
7487;SDS011;3785;52.260;4.728;2023-09-30T03:32:51;6.57;;;3.83;;
7487;SDS011;3785;52.260;4.728;2023-09-30T03:36:12;7.05;;;3.72;;
7487;SDS011;3785;52.260;4.728;2023-09-30T03:39:33;7.10;;;3.85;;
7487;SDS011;3785;52.260;4.728;2023-09-30T03:42:54;5.25;;;3.35;;
7487;SDS011;3785;52.260;4.728;2023-09-30T03:46:15;6.38;;;3.65;;
7487;SDS011;3785;52.260;4.728;2023-09-30T03:49:36;9.18;;;4.00;;
7487;SDS011;3785;52.260;4.728;2023-09-30T03:53:01;10.95;;;3.83;;
7487;SDS011;3785;52.260;4.728;2023-09-30T03:56:22;6.70;;;3.58;;
7487;SDS011;3785;52.260;4.728;2023-09-30T03:59:43;5.30;;;3.20;;
7487;SDS011;3785;52.260;4.728;2023-09-30T04:03:06;7.95;;;4.00;;
7487;SDS011;3785;52.260;4.728;2023-09-30T04:06:27;6.60;;;3.40;;
7487;SDS011;3785;52.260;4.728;2023-09-30T04:09:49;6.57;;;3.58;;
7487;SDS011;3785;52.260;4.728;2023-09-30T04:13:10;6.28;;;3.58;;
7487;SDS011;3785;52.260;4.728;2023-09-30T04:16:34;10.18;;;3.90;;
7487;SDS011;3785;52.260;4.728;2023-09-30T04:19:55;7.20;;;3.92;;
7487;SDS011;3785;52.260;4.728;2023-09-30T04:23:16;7.18;;;3.97;;
7487;SDS011;3785;52.260;4.728;2023-09-30T04:26:39;7.97;;;3.75;;
7487;SDS011;3785;52.260;4.728;2023-09-30T04:30:01;6.68;;;3.90;;
7487;SDS011;3785;52.260;4.728;2023-09-30T04:33:28;8.23;;;3.63;;
7487;SDS011;3785;52.260;4.728;2023-09-30T04:36:49;8.55;;;3.70;;
7487;SDS011;3785;52.260;4.728;2023-09-30T04:40:10;8.10;;;3.33;;
7487;SDS011;3785;52.260;4.728;2023-09-30T04:43:35;6.20;;;3.95;;
7487;SDS011;3785;52.260;4.728;2023-09-30T04:46:59;6.75;;;3.92;;
7487;SDS011;3785;52.260;4.728;2023-09-30T04:50:20;9.73;;;4.03;;
7487;SDS011;3785;52.260;4.728;2023-09-30T04:53:41;5.65;;;3.40;;
7487;SDS011;3785;52.260;4.728;2023-09-30T04:57:02;5.80;;;3.47;;
7487;SDS011;3785;52.260;4.728;2023-09-30T05:00:23;6.45;;;3.90;;
7487;SDS011;3785;52.260;4.728;2023-09-30T05:03:48;8.98;;;5.63;;
7487;SDS011;3785;52.260;4.728;2023-09-30T05:07:09;12.10;;;6.90;;
7487;SDS011;3785;52.260;4.728;2023-09-30T05:10:32;14.23;;;8.45;;
7487;SDS011;3785;52.260;4.728;2023-09-30T05:13:53;11.93;;;6.60;;
7487;SDS011;3785;52.260;4.728;2023-09-30T05:17:14;11.23;;;5.60;;
7487;SDS011;3785;52.260;4.728;2023-09-30T05:20:35;8.95;;;4.57;;
7487;SDS011;3785;52.260;4.728;2023-09-30T05:23:57;11.35;;;4.95;;
7487;SDS011;3785;52.260;4.728;2023-09-30T05:27:19;8.00;;;4.90;;
7487;SDS011;3785;52.260;4.728;2023-09-30T05:30:40;9.13;;;4.15;;
7487;SDS011;3785;52.260;4.728;2023-09-30T05:34:01;9.43;;;4.55;;
7487;SDS011;3785;52.260;4.728;2023-09-30T05:37:22;8.00;;;4.70;;
7487;SDS011;3785;52.260;4.728;2023-09-30T05:40:43;7.03;;;3.92;;
7487;SDS011;3785;52.260;4.728;2023-09-30T05:44:04;8.95;;;4.45;;
7487;SDS011;3785;52.260;4.728;2023-09-30T05:47:25;9.55;;;4.72;;
7487;SDS011;3785;52.260;4.728;2023-09-30T05:50:46;9.13;;;4.55;;
7487;SDS011;3785;52.260;4.728;2023-09-30T05:54:07;9.20;;;4.35;;
7487;SDS011;3785;52.260;4.728;2023-09-30T05:57:29;10.32;;;4.40;;
7487;SDS011;3785;52.260;4.728;2023-09-30T06:00:50;7.20;;;4.57;;
7487;SDS011;3785;52.260;4.728;2023-09-30T06:04:11;11.35;;;4.70;;
7487;SDS011;3785;52.260;4.728;2023-09-30T06:07:32;8.10;;;4.53;;
7487;SDS011;3785;52.260;4.728;2023-09-30T06:10:53;8.23;;;4.60;;
7487;SDS011;3785;52.260;4.728;2023-09-30T06:14:14;7.90;;;4.47;;
7487;SDS011;3785;52.260;4.728;2023-09-30T06:17:35;9.27;;;4.93;;
7487;SDS011;3785;52.260;4.728;2023-09-30T06:20:56;9.13;;;5.15;;
7487;SDS011;3785;52.260;4.728;2023-09-30T06:24:17;8.38;;;4.63;;
7487;SDS011;3785;52.260;4.728;2023-09-30T06:27:45;8.65;;;5.43;;
7487;SDS011;3785;52.260;4.728;2023-09-30T06:31:07;6.90;;;4.68;;
7487;SDS011;3785;52.260;4.728;2023-09-30T06:34:28;11.25;;;5.03;;
7487;SDS011;3785;52.260;4.728;2023-09-30T06:37:50;8.95;;;5.43;;
7487;SDS011;3785;52.260;4.728;2023-09-30T06:41:17;8.77;;;5.00;;
7487;SDS011;3785;52.260;4.728;2023-09-30T06:44:38;12.57;;;6.15;;
7487;SDS011;3785;52.260;4.728;2023-09-30T06:47:59;11.82;;;6.22;;
7487;SDS011;3785;52.260;4.728;2023-09-30T06:51:20;8.98;;;5.93;;
7487;SDS011;3785;52.260;4.728;2023-09-30T06:54:41;10.88;;;6.15;;
7487;SDS011;3785;52.260;4.728;2023-09-30T06:58:02;14.02;;;6.30;;
7487;SDS011;3785;52.260;4.728;2023-09-30T07:01:23;12.77;;;6.20;;
7487;SDS011;3785;52.260;4.728;2023-09-30T07:04:44;10.80;;;6.68;;
7487;SDS011;3785;52.260;4.728;2023-09-30T07:08:05;9.88;;;6.97;;
7487;SDS011;3785;52.260;4.728;2023-09-30T07:11:30;14.48;;;6.90;;
7487;SDS011;3785;52.260;4.728;2023-09-30T07:14:53;12.60;;;6.82;;
7487;SDS011;3785;52.260;4.728;2023-09-30T07:18:14;15.02;;;7.18;;
7487;SDS011;3785;52.260;4.728;2023-09-30T07:21:34;14.60;;;6.68;;
7487;SDS011;3785;52.260;4.728;2023-09-30T07:24:57;12.77;;;7.35;;
7487;SDS011;3785;52.260;4.728;2023-09-30T07:28:18;14.98;;;7.72;;
7487;SDS011;3785;52.260;4.728;2023-09-30T07:31:39;16.00;;;8.48;;
7487;SDS011;3785;52.260;4.728;2023-09-30T07:35:00;18.15;;;8.18;;
7487;SDS011;3785;52.260;4.728;2023-09-30T07:38:21;15.68;;;8.43;;
7487;SDS011;3785;52.260;4.728;2023-09-30T07:41:42;14.43;;;7.95;;
7487;SDS011;3785;52.260;4.728;2023-09-30T07:45:03;13.65;;;8.27;;
7487;SDS011;3785;52.260;4.728;2023-09-30T07:48:25;13.25;;;8.32;;
7487;SDS011;3785;52.260;4.728;2023-09-30T07:51:46;12.30;;;7.53;;
7487;SDS011;3785;52.260;4.728;2023-09-30T07:55:07;15.70;;;8.07;;
7487;SDS011;3785;52.260;4.728;2023-09-30T07:58:28;13.65;;;7.82;;
7487;SDS011;3785;52.260;4.728;2023-09-30T08:01:49;17.02;;;8.18;;
7487;SDS011;3785;52.260;4.728;2023-09-30T08:05:10;13.73;;;8.63;;
7487;SDS011;3785;52.260;4.728;2023-09-30T08:08:32;13.07;;;8.10;;
7487;SDS011;3785;52.260;4.728;2023-09-30T08:11:53;15.85;;;8.20;;
7487;SDS011;3785;52.260;4.728;2023-09-30T08:15:14;15.05;;;8.65;;
7487;SDS011;3785;52.260;4.728;2023-09-30T08:18:35;12.77;;;8.00;;
7487;SDS011;3785;52.260;4.728;2023-09-30T08:21:57;13.38;;;8.50;;
7487;SDS011;3785;52.260;4.728;2023-09-30T08:25:18;12.13;;;7.45;;
7487;SDS011;3785;52.260;4.728;2023-09-30T08:28:39;16.00;;;8.43;;
7487;SDS011;3785;52.260;4.728;2023-09-30T08:32:00;12.95;;;7.53;;
7487;SDS011;3785;52.260;4.728;2023-09-30T08:35:21;11.77;;;7.32;;
7487;SDS011;3785;52.260;4.728;2023-09-30T08:38:42;12.15;;;6.65;;
7487;SDS011;3785;52.260;4.728;2023-09-30T08:42:03;12.25;;;6.93;;
7487;SDS011;3785;52.260;4.728;2023-09-30T08:45:27;11.85;;;6.60;;
7487;SDS011;3785;52.260;4.728;2023-09-30T08:48:49;15.90;;;6.93;;
7487;SDS011;3785;52.260;4.728;2023-09-30T08:52:10;13.68;;;7.40;;
7487;SDS011;3785;52.260;4.728;2023-09-30T08:55:32;9.40;;;6.30;;
7487;SDS011;3785;52.260;4.728;2023-09-30T08:58:57;10.90;;;6.55;;
7487;SDS011;3785;52.260;4.728;2023-09-30T09:02:19;10.63;;;6.60;;
7487;SDS011;3785;52.260;4.728;2023-09-30T09:05:40;11.60;;;7.20;;
7487;SDS011;3785;52.260;4.728;2023-09-30T09:09:16;15.32;;;7.22;;
7487;SDS011;3785;52.260;4.728;2023-09-30T09:12:38;12.95;;;6.75;;
7487;SDS011;3785;52.260;4.728;2023-09-30T09:16:08;17.15;;;6.95;;
7487;SDS011;3785;52.260;4.728;2023-09-30T09:19:29;10.43;;;6.88;;
7487;SDS011;3785;52.260;4.728;2023-09-30T09:22:51;11.68;;;7.55;;
7487;SDS011;3785;52.260;4.728;2023-09-30T09:26:27;14.30;;;7.03;;
7487;SDS011;3785;52.260;4.728;2023-09-30T09:29:48;11.00;;;6.15;;
7487;SDS011;3785;52.260;4.728;2023-09-30T09:33:09;11.32;;;5.93;;
7487;SDS011;3785;52.260;4.728;2023-09-30T09:36:43;12.98;;;6.43;;
7487;SDS011;3785;52.260;4.728;2023-09-30T09:40:04;9.75;;;6.25;;
7487;SDS011;3785;52.260;4.728;2023-09-30T09:43:27;9.80;;;6.55;;
7487;SDS011;3785;52.260;4.728;2023-09-30T09:46:51;8.32;;;5.20;;
7487;SDS011;3785;52.260;4.728;2023-09-30T09:50:12;9.00;;;4.72;;
7487;SDS011;3785;52.260;4.728;2023-09-30T09:53:34;7.60;;;4.22;;
7487;SDS011;3785;52.260;4.728;2023-09-30T09:56:57;7.43;;;4.53;;
7487;SDS011;3785;52.260;4.728;2023-09-30T10:00:22;9.13;;;4.43;;
7487;SDS011;3785;52.260;4.728;2023-09-30T10:03:43;9.07;;;4.32;;
7487;SDS011;3785;52.260;4.728;2023-09-30T10:07:04;6.30;;;4.22;;
7487;SDS011;3785;52.260;4.728;2023-09-30T10:10:26;7.20;;;3.67;;
7487;SDS011;3785;52.260;4.728;2023-09-30T10:13:49;8.70;;;4.30;;
7487;SDS011;3785;52.260;4.728;2023-09-30T10:17:10;8.55;;;3.92;;
7487;SDS011;3785;52.260;4.728;2023-09-30T10:20:32;8.93;;;3.80;;
7487;SDS011;3785;52.260;4.728;2023-09-30T10:23:59;7.80;;;4.10;;
7487;SDS011;3785;52.260;4.728;2023-09-30T10:27:34;6.28;;;3.40;;
7487;SDS011;3785;52.260;4.728;2023-09-30T10:34:33;4.35;;;2.33;;
7487;SDS011;3785;52.260;4.728;2023-09-30T10:38:55;4.50;;;2.38;;
7487;SDS011;3785;52.260;4.728;2023-09-30T10:45:16;4.10;;;1.83;;
7487;SDS011;3785;52.260;4.728;2023-09-30T10:48:49;3.00;;;1.42;;
7487;SDS011;3785;52.260;4.728;2023-09-30T10:52:11;4.20;;;1.67;;
7487;SDS011;3785;52.260;4.728;2023-09-30T10:55:32;3.17;;;1.60;;
7487;SDS011;3785;52.260;4.728;2023-09-30T10:58:54;2.42;;;1.17;;
7487;SDS011;3785;52.260;4.728;2023-09-30T11:02:19;2.83;;;0.80;;
7487;SDS011;3785;52.260;4.728;2023-09-30T11:05:40;2.88;;;0.77;;
7487;SDS011;3785;52.260;4.728;2023-09-30T11:09:01;3.20;;;1.02;;
7487;SDS011;3785;52.260;4.728;2023-09-30T11:12:23;3.95;;;1.10;;
7487;SDS011;3785;52.260;4.728;2023-09-30T11:15:44;4.25;;;1.17;;
7487;SDS011;3785;52.260;4.728;2023-09-30T11:19:05;2.67;;;0.90;;
7487;SDS011;3785;52.260;4.728;2023-09-30T11:22:28;2.25;;;0.80;;
7487;SDS011;3785;52.260;4.728;2023-09-30T11:25:50;1.38;;;0.52;;
7487;SDS011;3785;52.260;4.728;2023-09-30T11:29:11;3.00;;;0.80;;
7487;SDS011;3785;52.260;4.728;2023-09-30T11:32:33;4.18;;;1.08;;
7487;SDS011;3785;52.260;4.728;2023-09-30T11:36:01;4.82;;;0.90;;
7487;SDS011;3785;52.260;4.728;2023-09-30T11:46:25;1.33;;;0.75;;
7487;SDS011;3785;52.260;4.728;2023-09-30T11:49:52;7.47;;;0.95;;
7487;SDS011;3785;52.260;4.728;2023-09-30T11:53:17;3.47;;;1.00;;
7487;SDS011;3785;52.260;4.728;2023-09-30T11:56:40;2.47;;;0.68;;
7487;SDS011;3785;52.260;4.728;2023-09-30T12:00:03;3.25;;;0.88;;
7487;SDS011;3785;52.260;4.728;2023-09-30T12:03:33;3.10;;;0.98;;
7487;SDS011;3785;52.260;4.728;2023-09-30T12:06:59;2.55;;;0.88;;
7487;SDS011;3785;52.260;4.728;2023-09-30T12:10:20;3.60;;;1.02;;
7487;SDS011;3785;52.260;4.728;2023-09-30T12:13:41;3.13;;;1.15;;
7487;SDS011;3785;52.260;4.728;2023-09-30T12:17:04;2.92;;;1.17;;
7487;SDS011;3785;52.260;4.728;2023-09-30T12:20:25;2.20;;;0.85;;
7487;SDS011;3785;52.260;4.728;2023-09-30T12:23:46;3.47;;;1.20;;
7487;SDS011;3785;52.260;4.728;2023-09-30T12:27:08;2.22;;;0.70;;
7487;SDS011;3785;52.260;4.728;2023-09-30T12:30:29;3.53;;;0.98;;
7487;SDS011;3785;52.260;4.728;2023-09-30T12:33:52;2.95;;;0.70;;
7487;SDS011;3785;52.260;4.728;2023-09-30T12:37:14;3.17;;;0.90;;
7487;SDS011;3785;52.260;4.728;2023-09-30T12:40:34;2.72;;;0.90;;
7487;SDS011;3785;52.260;4.728;2023-09-30T12:43:55;1.75;;;0.90;;
7487;SDS011;3785;52.260;4.728;2023-09-30T12:47:17;1.75;;;0.80;;
7487;SDS011;3785;52.260;4.728;2023-09-30T12:50:38;3.25;;;1.10;;
7487;SDS011;3785;52.260;4.728;2023-09-30T12:53:59;2.53;;;1.13;;
7487;SDS011;3785;52.260;4.728;2023-09-30T12:57:20;5.15;;;1.40;;
7487;SDS011;3785;52.260;4.728;2023-09-30T13:00:41;2.65;;;1.25;;
7487;SDS011;3785;52.260;4.728;2023-09-30T13:04:02;3.22;;;1.15;;
7487;SDS011;3785;52.260;4.728;2023-09-30T13:07:27;2.47;;;1.10;;
7487;SDS011;3785;52.260;4.728;2023-09-30T13:10:48;3.88;;;1.48;;
7487;SDS011;3785;52.260;4.728;2023-09-30T13:14:10;3.65;;;0.90;;
7487;SDS011;3785;52.260;4.728;2023-09-30T13:17:31;3.60;;;1.67;;
7487;SDS011;3785;52.260;4.728;2023-09-30T13:20:52;3.97;;;1.33;;
7487;SDS011;3785;52.260;4.728;2023-09-30T13:24:14;3.92;;;1.50;;
7487;SDS011;3785;52.260;4.728;2023-09-30T13:27:35;3.17;;;1.38;;
7487;SDS011;3785;52.260;4.728;2023-09-30T13:30:56;3.50;;;1.15;;
7487;SDS011;3785;52.260;4.728;2023-09-30T13:34:17;2.92;;;1.05;;
7487;SDS011;3785;52.260;4.728;2023-09-30T13:37:38;4.40;;;1.30;;
7487;SDS011;3785;52.260;4.728;2023-09-30T13:40:59;4.03;;;1.15;;
7487;SDS011;3785;52.260;4.728;2023-09-30T13:44:21;2.38;;;1.35;;
7487;SDS011;3785;52.260;4.728;2023-09-30T13:47:43;3.13;;;1.35;;
7487;SDS011;3785;52.260;4.728;2023-09-30T13:51:07;3.55;;;1.20;;
7487;SDS011;3785;52.260;4.728;2023-09-30T13:54:28;3.97;;;1.30;;
7487;SDS011;3785;52.260;4.728;2023-09-30T13:57:50;2.55;;;0.98;;
7487;SDS011;3785;52.260;4.728;2023-09-30T14:01:12;3.80;;;1.08;;
7487;SDS011;3785;52.260;4.728;2023-09-30T14:04:34;4.72;;;1.15;;
7487;SDS011;3785;52.260;4.728;2023-09-30T14:07:55;4.47;;;1.02;;
7487;SDS011;3785;52.260;4.728;2023-09-30T14:11:16;2.85;;;1.10;;
7487;SDS011;3785;52.260;4.728;2023-09-30T14:14:37;4.25;;;1.20;;
7487;SDS011;3785;52.260;4.728;2023-09-30T14:17:58;2.47;;;0.85;;
7487;SDS011;3785;52.260;4.728;2023-09-30T14:21:19;2.00;;;0.95;;
7487;SDS011;3785;52.260;4.728;2023-09-30T14:24:40;3.88;;;1.02;;
7487;SDS011;3785;52.260;4.728;2023-09-30T14:28:01;1.80;;;0.90;;
7487;SDS011;3785;52.260;4.728;2023-09-30T14:31:22;3.45;;;0.90;;
7487;SDS011;3785;52.260;4.728;2023-09-30T14:34:43;2.70;;;1.00;;
7487;SDS011;3785;52.260;4.728;2023-09-30T14:38:04;2.95;;;1.00;;
7487;SDS011;3785;52.260;4.728;2023-09-30T14:41:25;3.05;;;1.20;;
7487;SDS011;3785;52.260;4.728;2023-09-30T14:44:46;3.05;;;0.93;;
7487;SDS011;3785;52.260;4.728;2023-09-30T14:48:08;2.60;;;0.80;;
7487;SDS011;3785;52.260;4.728;2023-09-30T14:51:33;2.15;;;0.80;;
7487;SDS011;3785;52.260;4.728;2023-09-30T14:54:54;2.25;;;0.60;;
7487;SDS011;3785;52.260;4.728;2023-09-30T14:58:15;5.32;;;0.93;;
7487;SDS011;3785;52.260;4.728;2023-09-30T15:01:36;2.83;;;0.88;;
7487;SDS011;3785;52.260;4.728;2023-09-30T15:04:58;2.95;;;0.93;;
7487;SDS011;3785;52.260;4.728;2023-09-30T15:08:19;3.80;;;1.00;;
7487;SDS011;3785;52.260;4.728;2023-09-30T15:11:40;2.47;;;0.80;;
7487;SDS011;3785;52.260;4.728;2023-09-30T15:15:01;2.60;;;1.00;;
7487;SDS011;3785;52.260;4.728;2023-09-30T15:18:23;3.22;;;0.85;;
7487;SDS011;3785;52.260;4.728;2023-09-30T15:21:44;2.58;;;0.90;;
7487;SDS011;3785;52.260;4.728;2023-09-30T15:25:05;3.25;;;0.77;;
7487;SDS011;3785;52.260;4.728;2023-09-30T15:28:26;1.65;;;0.70;;
7487;SDS011;3785;52.260;4.728;2023-09-30T15:31:48;2.65;;;1.10;;
7487;SDS011;3785;52.260;4.728;2023-09-30T15:35:09;2.92;;;0.63;;
7487;SDS011;3785;52.260;4.728;2023-09-30T15:38:30;4.07;;;0.88;;
7487;SDS011;3785;52.260;4.728;2023-09-30T15:41:50;1.98;;;0.70;;
7487;SDS011;3785;52.260;4.728;2023-09-30T15:45:12;3.53;;;1.00;;
7487;SDS011;3785;52.260;4.728;2023-09-30T15:48:33;2.80;;;0.80;;
7487;SDS011;3785;52.260;4.728;2023-09-30T15:51:54;2.83;;;0.93;;
7487;SDS011;3785;52.260;4.728;2023-09-30T15:55:15;3.42;;;1.38;;
7487;SDS011;3785;52.260;4.728;2023-09-30T15:58:36;2.88;;;0.80;;
7487;SDS011;3785;52.260;4.728;2023-09-30T16:01:57;3.13;;;0.70;;
7487;SDS011;3785;52.260;4.728;2023-09-30T16:05:18;2.55;;;0.68;;
7487;SDS011;3785;52.260;4.728;2023-09-30T16:08:40;4.38;;;0.73;;
7487;SDS011;3785;52.260;4.728;2023-09-30T16:12:02;2.50;;;0.70;;
7487;SDS011;3785;52.260;4.728;2023-09-30T16:15:23;1.45;;;0.68;;
7487;SDS011;3785;52.260;4.728;2023-09-30T16:18:46;2.53;;;0.63;;
7487;SDS011;3785;52.260;4.728;2023-09-30T16:22:07;4.78;;;1.00;;
7487;SDS011;3785;52.260;4.728;2023-09-30T16:25:28;1.63;;;0.65;;
7487;SDS011;3785;52.260;4.728;2023-09-30T16:28:49;5.25;;;0.93;;
7487;SDS011;3785;52.260;4.728;2023-09-30T16:32:10;4.07;;;0.88;;
7487;SDS011;3785;52.260;4.728;2023-09-30T16:35:31;4.82;;;1.17;;
7487;SDS011;3785;52.260;4.728;2023-09-30T16:38:52;3.75;;;1.17;;
7487;SDS011;3785;52.260;4.728;2023-09-30T16:42:13;1.88;;;0.80;;
7487;SDS011;3785;52.260;4.728;2023-09-30T16:45:34;2.22;;;0.68;;
7487;SDS011;3785;52.260;4.728;2023-09-30T16:48:55;1.60;;;0.70;;
7487;SDS011;3785;52.260;4.728;2023-09-30T16:52:16;2.70;;;0.88;;
7487;SDS011;3785;52.260;4.728;2023-09-30T16:55:37;4.43;;;1.10;;
7487;SDS011;3785;52.260;4.728;2023-09-30T16:58:58;1.60;;;0.93;;
7487;SDS011;3785;52.260;4.728;2023-09-30T17:02:19;2.08;;;0.70;;
7487;SDS011;3785;52.260;4.728;2023-09-30T17:05:40;3.15;;;1.15;;
7487;SDS011;3785;52.260;4.728;2023-09-30T17:09:02;2.53;;;0.98;;
7487;SDS011;3785;52.260;4.728;2023-09-30T17:12:24;4.25;;;1.20;;
7487;SDS011;3785;52.260;4.728;2023-09-30T17:15:45;3.97;;;1.20;;
7487;SDS011;3785;52.260;4.728;2023-09-30T17:19:06;3.97;;;1.00;;
7487;SDS011;3785;52.260;4.728;2023-09-30T17:22:27;4.57;;;1.15;;
7487;SDS011;3785;52.260;4.728;2023-09-30T17:25:48;4.57;;;0.98;;
7487;SDS011;3785;52.260;4.728;2023-09-30T17:29:09;6.88;;;3.15;;
7487;SDS011;3785;52.260;4.728;2023-09-30T17:32:30;4.03;;;1.35;;
7487;SDS011;3785;52.260;4.728;2023-09-30T17:35:51;5.55;;;2.63;;
7487;SDS011;3785;52.260;4.728;2023-09-30T17:39:12;3.65;;;1.73;;
7487;SDS011;3785;52.260;4.728;2023-09-30T17:42:33;3.70;;;2.05;;
7487;SDS011;3785;52.260;4.728;2023-09-30T17:45:54;3.22;;;1.10;;
7487;SDS011;3785;52.260;4.728;2023-09-30T17:49:15;4.55;;;1.50;;
7487;SDS011;3785;52.260;4.728;2023-09-30T17:52:36;5.93;;;2.88;;
7487;SDS011;3785;52.260;4.728;2023-09-30T17:55:57;4.40;;;1.98;;
7487;SDS011;3785;52.260;4.728;2023-09-30T17:59:18;7.35;;;1.63;;
7487;SDS011;3785;52.260;4.728;2023-09-30T18:02:39;3.42;;;1.23;;
7487;SDS011;3785;52.260;4.728;2023-09-30T18:06:04;2.97;;;1.00;;
7487;SDS011;3785;52.260;4.728;2023-09-30T18:09:25;3.45;;;1.55;;
7487;SDS011;3785;52.260;4.728;2023-09-30T18:12:46;5.07;;;2.65;;
7487;SDS011;3785;52.260;4.728;2023-09-30T18:16:07;4.47;;;1.48;;
7487;SDS011;3785;52.260;4.728;2023-09-30T18:19:28;4.15;;;1.52;;
7487;SDS011;3785;52.260;4.728;2023-09-30T18:22:49;4.68;;;1.77;;
7487;SDS011;3785;52.260;4.728;2023-09-30T18:26:10;4.63;;;2.15;;
7487;SDS011;3785;52.260;4.728;2023-09-30T18:29:31;11.88;;;8.30;;
7487;SDS011;3785;52.260;4.728;2023-09-30T18:32:52;14.18;;;10.13;;
7487;SDS011;3785;52.260;4.728;2023-09-30T18:36:13;14.43;;;9.75;;
7487;SDS011;3785;52.260;4.728;2023-09-30T18:39:34;13.70;;;8.73;;
7487;SDS011;3785;52.260;4.728;2023-09-30T18:42:56;8.02;;;5.20;;
7487;SDS011;3785;52.260;4.728;2023-09-30T18:46:17;6.72;;;3.60;;
7487;SDS011;3785;52.260;4.728;2023-09-30T18:49:38;8.10;;;4.05;;
7487;SDS011;3785;52.260;4.728;2023-09-30T18:52:59;8.18;;;4.95;;
7487;SDS011;3785;52.260;4.728;2023-09-30T18:56:21;4.57;;;2.20;;
7487;SDS011;3785;52.260;4.728;2023-09-30T18:59:42;6.63;;;2.03;;
7487;SDS011;3785;52.260;4.728;2023-09-30T19:03:03;7.22;;;2.30;;
7487;SDS011;3785;52.260;4.728;2023-09-30T19:06:27;6.95;;;3.28;;
7487;SDS011;3785;52.260;4.728;2023-09-30T19:09:49;8.13;;;4.35;;
7487;SDS011;3785;52.260;4.728;2023-09-30T19:13:11;8.07;;;3.50;;
7487;SDS011;3785;52.260;4.728;2023-09-30T19:16:32;5.20;;;2.30;;
7487;SDS011;3785;52.260;4.728;2023-09-30T19:19:53;3.92;;;2.00;;
7487;SDS011;3785;52.260;4.728;2023-09-30T19:23:14;3.47;;;1.77;;
7487;SDS011;3785;52.260;4.728;2023-09-30T19:26:35;3.55;;;1.90;;
7487;SDS011;3785;52.260;4.728;2023-09-30T19:29:56;3.97;;;2.13;;
7487;SDS011;3785;52.260;4.728;2023-09-30T19:33:18;4.82;;;2.92;;
7487;SDS011;3785;52.260;4.728;2023-09-30T19:36:39;5.07;;;3.08;;
7487;SDS011;3785;52.260;4.728;2023-09-30T19:40:00;8.10;;;4.57;;
7487;SDS011;3785;52.260;4.728;2023-09-30T19:43:21;3.90;;;1.92;;
7487;SDS011;3785;52.260;4.728;2023-09-30T19:46:42;4.60;;;1.60;;
7487;SDS011;3785;52.260;4.728;2023-09-30T19:50:04;5.18;;;2.20;;
7487;SDS011;3785;52.260;4.728;2023-09-30T19:53:25;5.25;;;2.15;;
7487;SDS011;3785;52.260;4.728;2023-09-30T19:56:46;4.28;;;2.10;;
7487;SDS011;3785;52.260;4.728;2023-09-30T20:00:07;4.45;;;1.85;;
7487;SDS011;3785;52.260;4.728;2023-09-30T20:03:28;5.70;;;2.08;;
7487;SDS011;3785;52.260;4.728;2023-09-30T20:06:49;4.68;;;1.38;;
7487;SDS011;3785;52.260;4.728;2023-09-30T20:10:10;8.13;;;2.15;;
7487;SDS011;3785;52.260;4.728;2023-09-30T20:13:31;4.00;;;1.50;;
7487;SDS011;3785;52.260;4.728;2023-09-30T20:16:52;4.13;;;1.90;;
7487;SDS011;3785;52.260;4.728;2023-09-30T20:20:13;6.72;;;1.80;;
7487;SDS011;3785;52.260;4.728;2023-09-30T20:23:37;5.43;;;2.20;;
7487;SDS011;3785;52.260;4.728;2023-09-30T20:26:58;2.90;;;1.48;;
7487;SDS011;3785;52.260;4.728;2023-09-30T20:30:20;5.78;;;2.28;;
7487;SDS011;3785;52.260;4.728;2023-09-30T20:33:41;3.70;;;1.75;;
7487;SDS011;3785;52.260;4.728;2023-09-30T20:37:08;4.35;;;2.00;;
7487;SDS011;3785;52.260;4.728;2023-09-30T20:40:29;6.72;;;2.10;;
7487;SDS011;3785;52.260;4.728;2023-09-30T20:43:50;5.57;;;2.22;;
7487;SDS011;3785;52.260;4.728;2023-09-30T20:47:11;5.88;;;2.38;;
7487;SDS011;3785;52.260;4.728;2023-09-30T20:50:32;6.78;;;2.53;;
7487;SDS011;3785;52.260;4.728;2023-09-30T20:53:53;6.50;;;2.47;;
7487;SDS011;3785;52.260;4.728;2023-09-30T20:57:14;6.65;;;1.88;;
7487;SDS011;3785;52.260;4.728;2023-09-30T21:00:35;6.85;;;2.25;;
7487;SDS011;3785;52.260;4.728;2023-09-30T21:03:56;5.47;;;1.90;;